createdAt,value
2018-03-25T00:00:06.017Z,19.20
2018-03-25T00:02:34.310Z,21.05
2018-03-25T00:05:06.347Z,18.00
2018-03-25T00:07:34.682Z,18.12
2018-03-25T00:10:05.749Z,18.98
2018-03-25T00:12:34.063Z,19.80
2018-03-25T00:15:06.082Z,18.98
2018-03-25T00:17:34.396Z,19.77
2018-03-25T00:20:05.918Z,20.08
2018-03-25T00:22:34.218Z,17.55
2018-03-25T00:25:06.108Z,20.58
2018-03-25T00:27:34.397Z,18.08
2018-03-25T00:30:06.003Z,19.37
2018-03-25T00:32:34.486Z,17.70
2018-03-25T00:35:05.705Z,18.92
2018-03-25T00:37:34.009Z,17.25
2018-03-25T00:40:06.089Z,17.35
2018-03-25T00:42:34.384Z,18.12
2018-03-25T00:45:06.007Z,17.85
2018-03-25T00:47:34.962Z,18.65
2018-03-25T00:50:05.737Z,20.05
2018-03-25T00:52:34.040Z,22.87
2018-03-25T00:55:05.630Z,18.02
2018-03-25T00:57:33.911Z,17.85
2018-03-25T01:00:05.450Z,16.05
2018-03-25T01:02:33.736Z,21.20
2018-03-25T01:05:05.185Z,18.25
2018-03-25T01:07:33.524Z,17.83
2018-03-25T01:10:05.616Z,19.50
2018-03-25T01:12:33.894Z,17.77
2018-03-25T01:15:05.141Z,18.12
2018-03-25T01:17:33.441Z,18.75
2018-03-25T01:20:08.270Z,18.90
2018-03-25T01:22:36.689Z,20.08
2018-03-25T01:25:05.957Z,18.50
2018-03-25T01:27:34.296Z,19.60
2018-03-25T01:30:05.644Z,20.60
2018-03-25T01:32:33.952Z,19.48
2018-03-25T01:35:05.315Z,22.30
2018-03-25T01:37:33.604Z,19.00
2018-03-25T01:40:05.126Z,21.95
2018-03-25T01:42:33.419Z,20.42
2018-03-25T01:45:08.193Z,18.62
2018-03-25T01:47:36.468Z,18.25
2018-03-25T01:50:07.121Z,19.00
2018-03-25T01:52:35.414Z,18.75
2018-03-25T01:55:07.250Z,17.92
2018-03-25T01:57:35.576Z,19.85
2018-03-25T02:00:06.789Z,18.83
2018-03-25T02:02:35.273Z,18.70
2018-03-25T02:05:07.299Z,17.05
2018-03-25T02:07:35.588Z,19.73
2018-03-25T02:10:07.793Z,18.15
2018-03-25T02:12:36.079Z,19.62
2018-03-25T02:15:06.094Z,17.73
2018-03-25T02:17:34.581Z,17.12
2018-03-25T02:20:06.734Z,20.48
2018-03-25T02:22:35.021Z,19.67
2018-03-25T02:25:06.645Z,18.90
2018-03-25T02:27:34.922Z,20.67
2018-03-25T02:30:06.085Z,19.42
2018-03-25T02:32:34.370Z,18.62
2018-03-25T02:35:05.760Z,16.70
2018-03-25T02:37:34.560Z,19.17
2018-03-25T02:40:05.938Z,18.33
2018-03-25T02:42:34.215Z,18.37
2018-03-25T02:45:06.148Z,18.40
2018-03-25T02:47:34.401Z,22.95
2018-03-25T02:50:08.380Z,18.60
2018-03-25T02:52:36.700Z,21.10
2018-03-25T02:55:06.795Z,19.20
2018-03-25T02:57:35.072Z,19.02
2018-03-25T03:00:06.978Z,19.50
2018-03-25T03:02:35.275Z,19.37
2018-03-25T03:05:07.382Z,20.67
2018-03-25T03:07:35.692Z,18.50
2018-03-25T03:10:07.881Z,19.23
2018-03-25T03:12:36.164Z,18.98
2018-03-25T03:15:07.351Z,18.87
2018-03-25T03:17:35.690Z,19.48
2018-03-25T03:20:07.278Z,18.75
2018-03-25T03:22:35.617Z,19.17
2018-03-25T03:25:07.571Z,18.92
2018-03-25T03:27:36.362Z,19.85
2018-03-25T03:30:06.164Z,20.12
2018-03-25T03:32:34.512Z,20.52
2018-03-25T03:35:06.132Z,17.92
2018-03-25T03:37:34.822Z,21.60
2018-03-25T03:40:06.790Z,19.55
2018-03-25T03:42:35.077Z,20.52
2018-03-25T03:45:06.695Z,20.40
2018-03-25T03:47:34.994Z,20.10
2018-03-25T03:50:06.041Z,19.92
2018-03-25T03:52:34.340Z,20.98
2018-03-25T03:55:05.764Z,18.00
2018-03-25T03:57:34.097Z,19.12
2018-03-25T04:00:09.291Z,19.60
2018-03-25T04:02:37.672Z,18.58
2018-03-25T04:05:07.643Z,18.42
2018-03-25T04:07:35.956Z,18.42
2018-03-25T04:10:06.380Z,20.27
2018-03-25T04:12:34.653Z,18.40
2018-03-25T04:15:06.556Z,19.27
2018-03-25T04:17:34.833Z,18.95
2018-03-25T04:20:08.802Z,19.10
2018-03-25T04:22:37.085Z,18.65
2018-03-25T04:25:06.757Z,18.30
2018-03-25T04:27:35.043Z,19.45
2018-03-25T04:30:06.672Z,23.12
2018-03-25T04:32:34.950Z,18.10
2018-03-25T04:35:05.760Z,19.85
2018-03-25T04:37:34.100Z,19.55
2018-03-25T04:40:06.077Z,21.55
2018-03-25T04:42:34.351Z,20.73
2018-03-25T04:45:08.421Z,19.67
2018-03-25T04:47:36.693Z,20.48
2018-03-25T04:50:06.636Z,19.70
2018-03-25T04:52:34.927Z,20.02
2018-03-25T04:55:05.775Z,19.83
2018-03-25T04:57:34.037Z,18.80
2018-03-25T05:00:07.263Z,18.20
2018-03-25T05:02:35.542Z,19.77
2018-03-25T05:05:06.907Z,19.75
2018-03-25T05:07:35.225Z,22.25
2018-03-25T05:10:06.934Z,18.45
2018-03-25T05:12:36.439Z,20.33
2018-03-25T05:15:06.635Z,19.12
2018-03-25T05:17:35.146Z,17.98
2018-03-25T05:20:07.173Z,20.05
2018-03-25T05:22:35.484Z,18.27
2018-03-25T05:25:07.390Z,20.98
2018-03-25T05:27:35.716Z,18.98
2018-03-25T05:30:07.147Z,20.00
2018-03-25T05:32:35.454Z,19.70
2018-03-25T05:35:07.294Z,17.83
2018-03-25T05:37:36.235Z,18.33
2018-03-25T05:40:05.883Z,21.17
2018-03-25T05:42:34.845Z,18.55
2018-03-25T05:45:05.851Z,19.35
2018-03-25T05:47:34.892Z,19.45
2018-03-25T05:50:06.129Z,19.55
2018-03-25T05:52:34.658Z,18.95
2018-03-25T05:55:06.841Z,21.30
2018-03-25T05:57:35.124Z,21.33
2018-03-25T06:00:06.746Z,20.27
2018-03-25T06:02:35.059Z,21.05
2018-03-25T06:05:06.649Z,19.52
2018-03-25T06:07:35.037Z,21.92
2018-03-25T06:10:06.493Z,22.23
2018-03-25T06:12:34.782Z,21.48
2018-03-25T06:15:06.613Z,19.75
2018-03-25T06:17:35.596Z,19.50
2018-03-25T06:20:07.127Z,17.80
2018-03-25T06:22:35.677Z,20.02
2018-03-25T06:25:05.901Z,19.08
2018-03-25T06:27:34.195Z,19.30
2018-03-25T06:30:07.093Z,20.98
2018-03-25T06:32:35.388Z,18.98
2018-03-25T06:35:07.179Z,18.13
2018-03-25T06:37:35.683Z,19.37
2018-03-25T06:40:07.738Z,19.53
2018-03-25T06:42:36.058Z,19.13
2018-03-25T06:45:07.773Z,18.10
2018-03-25T06:47:36.067Z,19.17
2018-03-25T06:50:08.063Z,18.90
2018-03-25T06:52:36.381Z,15.50
2018-03-25T06:55:07.635Z,16.10
2018-03-25T06:57:36.105Z,18.30
2018-03-25T07:00:06.227Z,15.80
2018-03-25T07:02:34.525Z,17.30
2018-03-25T07:05:06.644Z,17.50
2018-03-25T07:07:35.097Z,18.53
2018-03-25T07:10:07.203Z,18.77
2018-03-25T07:12:35.553Z,18.30
2018-03-25T07:15:07.333Z,17.83
2018-03-25T07:17:35.634Z,17.20
2018-03-25T07:20:07.472Z,17.00
2018-03-25T07:22:35.778Z,14.53
2018-03-25T07:25:07.290Z,16.03
2018-03-25T07:27:35.596Z,18.53
2018-03-25T07:30:07.158Z,17.53
2018-03-25T07:32:35.470Z,15.73
2018-03-25T07:35:07.005Z,17.80
2018-03-25T07:37:35.302Z,18.03
2018-03-25T07:40:07.209Z,16.60
2018-03-25T07:42:35.556Z,16.63
2018-03-25T07:45:07.616Z,15.40
2018-03-25T07:47:35.896Z,17.73
2018-03-25T07:50:05.982Z,15.70
2018-03-25T07:52:34.309Z,15.20
2018-03-25T07:55:09.368Z,15.57
2018-03-25T07:57:37.681Z,15.27
2018-03-25T08:00:06.012Z,15.50
2018-03-25T08:02:34.292Z,15.23
2018-03-25T08:05:09.316Z,15.40
2018-03-25T08:07:37.594Z,15.20
2018-03-25T08:10:10.213Z,17.17
2018-03-25T08:12:38.503Z,15.50
2018-03-25T08:15:07.054Z,15.63
2018-03-25T08:17:35.661Z,14.53
2018-03-25T08:20:07.778Z,15.40
2018-03-25T08:22:36.075Z,14.40
2018-03-25T08:25:06.038Z,14.63
2018-03-25T08:27:34.352Z,15.17
2018-03-25T08:30:06.390Z,14.67
2018-03-25T08:32:35.302Z,16.73
2018-03-25T08:35:07.140Z,15.93
2018-03-25T08:37:35.524Z,16.70
2018-03-25T08:40:07.666Z,15.60
2018-03-25T08:42:36.466Z,16.10
2018-03-25T08:45:07.808Z,14.33
2018-03-25T08:47:36.869Z,15.43
2018-03-25T08:50:06.620Z,14.60
2018-03-25T08:52:35.065Z,15.33
2018-03-25T08:55:07.093Z,15.00
2018-03-25T08:57:35.386Z,17.50
2018-03-25T09:00:06.999Z,15.33
2018-03-25T09:02:35.323Z,31.83
2018-03-25T09:05:07.265Z,18.33
2018-03-25T09:07:35.922Z,15.37
2018-03-25T09:10:07.785Z,17.13
2018-03-25T09:12:36.225Z,15.70
2018-03-25T09:15:07.468Z,15.90
2018-03-25T09:17:35.780Z,17.67
2018-03-25T09:20:08.022Z,15.47
2018-03-25T09:22:36.455Z,17.40
2018-03-25T09:25:06.665Z,16.77
2018-03-25T09:27:35.454Z,15.17
2018-03-25T09:30:07.492Z,16.03
2018-03-25T09:32:35.825Z,17.40
2018-03-25T09:35:07.383Z,16.30
2018-03-25T09:37:36.211Z,15.40
2018-03-25T09:40:07.755Z,16.73
2018-03-25T09:42:36.237Z,15.53
2018-03-25T09:45:07.869Z,18.10
2018-03-25T09:47:36.180Z,16.63
2018-03-25T09:50:07.495Z,19.67
2018-03-25T09:52:35.802Z,16.80
2018-03-25T09:55:08.041Z,16.80
2018-03-25T09:57:36.348Z,17.57
2018-03-25T10:00:10.485Z,18.23
2018-03-25T10:02:43.009Z,18.10
2018-03-25T10:05:15.097Z,18.27
2018-03-25T10:07:43.406Z,19.47
2018-03-25T10:10:11.838Z,17.50
2018-03-25T10:12:40.113Z,18.10
2018-03-25T10:15:08.445Z,17.93
2018-03-25T10:17:36.725Z,17.50
2018-03-25T10:20:06.486Z,19.07
2018-03-25T10:22:34.793Z,17.33
2018-03-25T10:25:06.363Z,18.23
2018-03-25T10:27:34.651Z,17.67
2018-03-25T10:30:08.626Z,18.13
2018-03-25T10:32:36.905Z,19.97
2018-03-25T10:35:10.521Z,19.90
2018-03-25T10:37:38.953Z,19.23
2018-03-25T10:40:07.582Z,18.93
2018-03-25T10:42:35.934Z,19.70
2018-03-25T10:45:07.204Z,20.87
2018-03-25T10:47:36.514Z,20.23
2018-03-25T10:50:07.958Z,19.67
2018-03-25T10:52:40.176Z,20.73
2018-03-25T10:55:08.613Z,23.00
2018-03-25T10:57:37.283Z,22.87
2018-03-25T11:00:06.466Z,20.83
2018-03-25T11:02:34.965Z,19.03
2018-03-25T11:05:06.797Z,20.20
2018-03-25T11:07:35.408Z,20.07
2018-03-25T11:10:07.513Z,18.07
2018-03-25T11:12:35.828Z,20.10
2018-03-25T11:15:07.157Z,19.83
2018-03-25T11:17:35.673Z,19.63
2018-03-25T11:20:07.678Z,19.77
2018-03-25T11:22:35.981Z,19.60
2018-03-25T11:25:07.213Z,18.40
2018-03-25T11:27:35.742Z,17.97
2018-03-25T11:30:07.168Z,18.70
2018-03-25T11:32:36.117Z,19.43
2018-03-25T11:35:09.247Z,19.60
2018-03-25T11:37:37.540Z,19.53
2018-03-25T11:40:06.154Z,18.00
2018-03-25T11:42:34.572Z,18.87
2018-03-25T11:45:09.750Z,18.13
2018-03-25T11:47:38.064Z,19.23
2018-03-25T11:50:06.815Z,18.20
2018-03-25T11:52:35.086Z,17.40
2018-03-25T11:55:06.417Z,18.77
2018-03-25T11:57:34.880Z,17.90
2018-03-25T12:00:06.442Z,17.67
2018-03-25T12:02:34.845Z,18.23
2018-03-25T12:05:08.804Z,19.03
2018-03-25T12:07:37.098Z,19.07
2018-03-25T12:10:06.951Z,18.00
2018-03-25T12:12:35.606Z,18.17
2018-03-25T12:15:07.733Z,17.10
2018-03-25T12:17:36.257Z,18.13
2018-03-25T12:20:06.193Z,17.83
2018-03-25T12:22:34.475Z,17.27
2018-03-25T12:25:09.765Z,19.07
2018-03-25T12:27:38.061Z,18.13
2018-03-25T12:30:06.617Z,18.47
2018-03-25T12:32:34.862Z,42.07
2018-03-25T12:35:07.142Z,22.10
2018-03-25T12:37:39.105Z,45.87
2018-03-25T12:40:07.432Z,44.93
2018-03-25T12:42:36.156Z,29.73
2018-03-25T12:45:08.307Z,18.27
2018-03-25T12:47:36.586Z,23.17
2018-03-25T12:50:08.749Z,17.20
2018-03-25T12:52:37.084Z,18.60
2018-03-25T12:55:07.182Z,22.63
2018-03-25T12:57:35.636Z,23.07
2018-03-25T13:00:06.874Z,20.13
2018-03-25T13:02:35.486Z,18.37
2018-03-25T13:05:07.039Z,16.80
2018-03-25T13:07:35.556Z,21.97
2018-03-25T13:10:06.289Z,17.53
2018-03-25T13:12:34.569Z,18.23
2018-03-25T13:15:06.290Z,17.33
2018-03-25T13:17:34.638Z,18.87
2018-03-25T13:20:06.201Z,19.53
2018-03-25T13:22:35.186Z,18.27
2018-03-25T13:25:07.250Z,18.20
2018-03-25T13:27:35.544Z,20.33
2018-03-25T13:30:07.784Z,19.73
2018-03-25T13:32:36.094Z,19.43
2018-03-25T13:35:07.418Z,20.50
2018-03-25T13:37:35.732Z,19.37
2018-03-25T13:40:08.066Z,21.43
2018-03-25T13:42:36.377Z,26.83
2018-03-25T13:45:06.214Z,20.70
2018-03-25T13:47:34.567Z,21.23
2018-03-25T13:50:06.134Z,19.03
2018-03-25T13:52:35.742Z,20.67
2018-03-25T13:55:07.277Z,21.63
2018-03-25T13:57:35.596Z,20.07
2018-03-25T14:00:07.376Z,18.83
2018-03-25T14:02:35.774Z,18.83
2018-03-25T14:05:07.782Z,18.77
2018-03-25T14:07:36.068Z,18.50
2018-03-25T14:10:07.492Z,20.20
2018-03-25T14:12:35.765Z,21.60
2018-03-25T14:15:07.171Z,20.83
2018-03-25T14:17:35.463Z,20.13
2018-03-25T14:20:06.325Z,20.93
2018-03-25T14:22:34.608Z,19.33
2018-03-25T14:25:06.224Z,20.90
2018-03-25T14:27:34.523Z,20.03
2018-03-25T14:30:08.546Z,19.23
2018-03-25T14:32:37.297Z,21.27
2018-03-25T14:35:06.740Z,20.57
2018-03-25T14:37:35.045Z,18.93
2018-03-25T14:40:06.392Z,19.90
2018-03-25T14:42:34.682Z,19.77
2018-03-25T14:45:06.254Z,19.77
2018-03-25T14:47:34.923Z,20.57
2018-03-25T14:50:08.878Z,18.03
2018-03-25T14:52:37.691Z,20.07
2018-03-25T14:55:06.641Z,20.17
2018-03-25T14:57:35.763Z,19.03
2018-03-25T15:00:07.220Z,18.73
2018-03-25T15:02:35.508Z,20.30
2018-03-25T15:05:07.369Z,19.90
2018-03-25T15:07:35.993Z,19.27
2018-03-25T15:10:07.980Z,17.07
2018-03-25T15:12:36.345Z,20.30
2018-03-25T15:15:09.464Z,18.87
2018-03-25T15:17:37.808Z,19.93
2018-03-25T15:20:06.793Z,36.53
2018-03-25T15:22:35.123Z,30.37
2018-03-25T15:25:07.142Z,22.73
2018-03-25T15:27:35.440Z,18.17
2018-03-25T15:30:06.387Z,18.63
2018-03-25T15:32:34.690Z,18.67
2018-03-25T15:35:09.854Z,19.33
2018-03-25T15:37:38.175Z,18.60
2018-03-25T15:40:06.465Z,20.53
2018-03-25T15:42:34.813Z,19.53
2018-03-25T15:45:06.468Z,18.03
2018-03-25T15:47:34.809Z,18.43
2018-03-25T15:50:06.941Z,20.23
2018-03-25T15:52:35.503Z,19.07
2018-03-25T15:55:06.768Z,20.57
2018-03-25T15:57:39.030Z,17.90
2018-03-25T16:00:07.365Z,17.57
2018-03-25T16:02:35.657Z,16.47
2018-03-25T16:05:06.409Z,16.50
2018-03-25T16:07:35.598Z,16.63
2018-03-25T16:10:07.293Z,30.10
2018-03-25T16:12:35.638Z,22.67
2018-03-25T16:15:07.892Z,16.70
2018-03-25T16:17:36.217Z,18.17
2018-03-25T16:20:07.267Z,16.50
2018-03-25T16:22:35.548Z,16.00
2018-03-25T16:25:07.230Z,16.63
2018-03-25T16:27:35.572Z,18.33
2018-03-25T16:30:07.680Z,19.50
2018-03-25T16:32:36.310Z,18.60
2018-03-25T16:35:06.155Z,21.27
2018-03-25T16:37:34.854Z,19.03
2018-03-25T16:40:06.120Z,20.40
2018-03-25T16:42:34.425Z,23.03
2018-03-25T16:45:05.988Z,21.53
2018-03-25T16:47:34.433Z,25.40
2018-03-25T16:50:06.460Z,20.00
2018-03-25T16:52:34.785Z,22.17
2018-03-25T16:55:06.295Z,20.50
2018-03-25T16:57:35.412Z,20.93
2018-03-25T17:00:06.893Z,20.13
2018-03-25T17:02:35.398Z,22.50
2018-03-25T17:05:07.408Z,19.30
2018-03-25T17:07:35.725Z,19.37
2018-03-25T17:10:07.049Z,22.13
2018-03-25T17:12:35.394Z,23.23
2018-03-25T17:15:06.970Z,22.43
2018-03-25T17:17:35.589Z,23.53
2018-03-25T17:20:07.337Z,22.73
2018-03-25T17:22:35.905Z,22.77
2018-03-25T17:25:07.980Z,21.43
2018-03-25T17:27:36.266Z,25.63
2018-03-25T17:30:07.893Z,25.47
2018-03-25T17:32:36.420Z,24.03
2018-03-25T17:35:06.540Z,26.03
2018-03-25T17:37:34.843Z,28.97
2018-03-25T17:40:08.837Z,23.57
2018-03-25T17:42:37.134Z,23.07
2018-03-25T17:45:06.680Z,23.03
2018-03-25T17:47:34.973Z,21.00
2018-03-25T17:50:06.279Z,23.30
2018-03-25T17:52:34.557Z,22.63
2018-03-25T17:55:06.493Z,38.10
2018-03-25T17:57:34.825Z,21.97
2018-03-25T18:00:06.750Z,22.83
2018-03-25T18:02:35.847Z,20.50
2018-03-25T18:05:07.294Z,21.53
2018-03-25T18:07:35.627Z,21.13
2018-03-25T18:10:07.688Z,21.40
2018-03-25T18:12:36.018Z,19.67
2018-03-25T18:15:07.264Z,40.73
2018-03-25T18:17:35.573Z,22.27
2018-03-25T18:20:07.697Z,19.53
2018-03-25T18:22:36.360Z,21.40
2018-03-25T18:25:06.391Z,21.00
2018-03-25T18:27:35.147Z,22.57
2018-03-25T18:30:06.642Z,20.30
2018-03-25T18:32:34.947Z,21.87
2018-03-25T18:35:06.375Z,22.73
2018-03-25T18:37:34.731Z,23.90
2018-03-25T18:40:06.703Z,24.13
2018-03-25T18:42:35.249Z,23.80
2018-03-25T18:45:06.910Z,22.80
2018-03-25T18:47:35.193Z,22.27
2018-03-25T18:50:06.739Z,23.20
2018-03-25T18:52:35.226Z,31.00
2018-03-25T18:55:06.750Z,23.10
2018-03-25T18:57:35.066Z,27.03
2018-03-25T19:00:06.757Z,25.67
2018-03-25T19:02:35.198Z,25.00
2018-03-25T19:05:06.336Z,23.30
2018-03-25T19:07:34.628Z,23.37
2018-03-25T19:10:06.169Z,24.53
2018-03-25T19:12:34.458Z,26.23
2018-03-25T19:15:06.578Z,23.53
2018-03-25T19:17:34.894Z,26.10
2018-03-25T19:20:07.248Z,25.37
2018-03-25T19:22:35.526Z,27.53
2018-03-25T19:25:06.335Z,26.43
2018-03-25T19:27:34.639Z,26.20
2018-03-25T19:30:06.129Z,28.37
2018-03-25T19:32:34.451Z,31.53
2018-03-25T19:35:06.366Z,27.47
2018-03-25T19:37:34.703Z,25.90
2018-03-25T19:40:09.912Z,27.70
2018-03-25T19:42:38.263Z,26.70
2018-03-25T19:45:06.551Z,28.37
2018-03-25T19:47:34.882Z,30.57
2018-03-25T19:50:06.439Z,31.07
2018-03-25T19:52:34.759Z,31.23
2018-03-25T19:55:06.114Z,28.53
2018-03-25T19:57:34.444Z,28.33
2018-03-25T20:00:09.501Z,31.60
2018-03-25T20:02:37.849Z,27.30
2018-03-25T20:05:06.346Z,27.13
2018-03-25T20:07:34.678Z,28.30
2018-03-25T20:10:06.540Z,31.13
2018-03-25T20:15:09.425Z,27.87
2018-03-25T20:17:37.811Z,29.03
2018-03-25T20:20:07.269Z,29.63
2018-03-25T20:22:35.558Z,30.30
2018-03-25T20:25:06.520Z,30.47
2018-03-25T20:27:35.012Z,30.90
2018-03-25T20:30:06.435Z,29.63
2018-03-25T20:32:34.734Z,29.40
2018-03-25T20:35:06.618Z,32.43
2018-03-25T20:37:34.939Z,31.53
2018-03-25T20:40:06.466Z,35.97
2018-03-25T20:42:34.865Z,36.20
2018-03-25T20:45:06.732Z,31.57
2018-03-25T20:47:35.053Z,33.13
2018-03-25T20:50:07.110Z,37.83
2018-03-25T20:52:35.628Z,33.80
2018-03-25T20:55:07.671Z,33.60
2018-03-25T20:57:35.903Z,32.77
2018-03-25T21:00:07.946Z,34.40
2018-03-25T21:02:36.271Z,31.77
2018-03-25T21:05:08.312Z,33.20
2018-03-25T21:07:36.706Z,31.47
2018-03-25T21:10:06.778Z,32.53
2018-03-25T21:12:35.102Z,30.13
2018-03-25T21:15:07.152Z,34.47
2018-03-25T21:17:35.437Z,33.30
2018-03-25T21:20:07.569Z,34.30
2018-03-25T21:22:35.889Z,36.60
2018-03-25T21:25:07.116Z,35.13
2018-03-25T21:27:36.293Z,36.40
2018-03-25T21:30:07.621Z,35.20
2018-03-25T21:32:35.933Z,48.63
2018-03-25T21:35:07.405Z,40.00
2018-03-25T21:37:35.912Z,37.30
2018-03-25T21:40:08.081Z,41.63
2018-03-25T21:42:36.344Z,39.30
2018-03-25T21:45:08.246Z,34.70
2018-03-25T21:47:36.547Z,46.67
2018-03-25T21:50:07.787Z,36.57
2018-03-25T21:52:36.353Z,35.20
2018-03-25T21:55:06.446Z,38.57
2018-03-25T21:57:34.746Z,41.73
2018-03-25T22:00:06.227Z,39.03
2018-03-25T22:02:34.542Z,42.73
2018-03-25T22:05:07.045Z,32.43
2018-03-25T22:07:35.354Z,37.30
2018-03-25T22:10:06.933Z,37.67
2018-03-25T22:12:35.261Z,33.40
2018-03-25T22:15:07.301Z,39.00
2018-03-25T22:17:35.642Z,39.30
2018-03-25T22:20:06.876Z,39.10
2018-03-25T22:22:35.174Z,36.40
2018-03-25T22:25:07.314Z,79.63
2018-03-25T22:27:35.594Z,66.30
2018-03-25T22:30:06.891Z,60.70
2018-03-25T22:32:36.072Z,51.87
2018-03-25T22:35:07.600Z,47.83
2018-03-25T22:37:35.874Z,50.30
2018-03-25T22:40:07.130Z,41.97
2018-03-25T22:42:35.424Z,44.30
2018-03-25T22:45:06.785Z,50.70
2018-03-25T22:47:35.100Z,49.33
2018-03-25T22:50:06.767Z,60.53
2018-03-25T22:52:35.061Z,38.80
2018-03-25T22:55:07.126Z,52.67
2018-03-25T22:57:35.422Z,67.70
2018-03-25T23:00:06.180Z,62.77
2018-03-25T23:02:34.517Z,55.27
2018-03-25T23:05:05.997Z,58.40
2018-03-25T23:07:34.282Z,56.50
2018-03-25T23:10:05.760Z,37.13
2018-03-25T23:12:34.114Z,46.20
2018-03-25T23:15:06.008Z,34.60
2018-03-25T23:17:34.285Z,42.63
2018-03-25T23:20:05.795Z,35.27
2018-03-25T23:22:34.104Z,40.63
2018-03-25T23:25:05.465Z,40.47
2018-03-25T23:27:33.785Z,34.87
2018-03-25T23:30:05.776Z,37.47
2018-03-25T23:32:34.125Z,37.80
2018-03-25T23:35:06.002Z,33.40
2018-03-25T23:37:34.304Z,35.67
2018-03-25T23:40:05.809Z,36.00
2018-03-25T23:42:34.114Z,38.80
2018-03-25T23:45:05.485Z,34.90
2018-03-25T23:47:33.812Z,39.07
2018-03-25T23:50:05.900Z,38.70
2018-03-25T23:52:34.234Z,34.47
2018-03-25T23:55:06.401Z,36.00
2018-03-25T23:57:35.119Z,37.50
